createdAt,value
2019-04-23T00:01:16.408Z,14.30
2019-04-23T00:03:38.941Z,14.40
2019-04-23T00:06:18.844Z,14.30
2019-04-23T00:08:52.659Z,14.40
2019-04-23T00:11:24.023Z,14.40
2019-04-23T00:13:54.161Z,14.40
2019-04-23T00:16:26.260Z,14.50
2019-04-23T00:19:03.081Z,14.30
2019-04-23T00:21:42.477Z,14.20
2019-04-23T00:24:21.335Z,14.20
2019-04-23T00:27:01.937Z,14.20
2019-04-23T00:29:21.103Z,14.10
2019-04-23T00:31:52.332Z,14.00
2019-04-23T00:34:26.839Z,14.00
2019-04-23T00:36:51.367Z,14.00
2019-04-23T00:39:23.460Z,14.00
2019-04-23T00:41:57.391Z,14.00
2019-04-23T00:44:32.451Z,14.00
2019-04-23T00:47:01.070Z,14.00
2019-04-23T00:49:37.221Z,14.00
2019-04-23T00:52:06.081Z,13.80
2019-04-23T00:54:44.391Z,13.60
2019-04-23T00:57:23.115Z,13.40
2019-04-23T00:59:48.233Z,13.30
2019-04-23T01:02:33.588Z,13.30
2019-04-23T01:04:51.043Z,13.30
2019-04-23T01:07:20.093Z,13.30
2019-04-23T01:10:05.560Z,13.30
2019-04-23T01:12:34.269Z,13.30
2019-04-23T01:14:58.797Z,13.20
2019-04-23T01:17:42.649Z,13.10
2019-04-23T01:20:10.948Z,13.20
2019-04-23T01:22:23.379Z,13.20
2019-04-23T01:25:28.648Z,13.20
2019-04-23T01:28:23.506Z,13.10
2019-04-23T01:30:59.719Z,13.10
2019-04-23T01:33:28.781Z,13.00
2019-04-23T01:38:29.310Z,12.80
2019-04-23T01:40:53.664Z,12.80
2019-04-23T01:43:30.795Z,12.70
2019-04-23T01:46:03.023Z,12.70
2019-04-23T01:48:36.752Z,12.60
2019-04-23T01:53:43.877Z,12.70
2019-04-23T01:56:04.863Z,12.80
2019-04-23T02:01:13.839Z,12.70
2019-04-23T02:03:48.509Z,12.80
2019-04-23T02:06:36.697Z,12.80
2019-04-23T02:08:55.281Z,12.80
2019-04-23T02:11:20.203Z,12.90
2019-04-23T02:13:55.359Z,12.80
2019-04-23T02:16:24.670Z,12.80
2019-04-23T02:18:56.989Z,12.70
2019-04-23T02:21:36.608Z,12.70
2019-04-23T02:24:10.934Z,12.60
2019-04-23T02:26:38.455Z,12.40
2019-04-23T02:31:58.370Z,12.30
2019-04-23T02:39:28.876Z,12.10
2019-04-23T02:44:24.189Z,11.90
2019-04-23T02:47:12.629Z,12.00
2019-04-23T02:49:35.938Z,12.10
2019-04-23T03:02:37.249Z,12.10
2019-04-23T03:05:00.914Z,12.20
2019-04-23T03:18:16.406Z,11.90
2019-04-23T03:20:34.985Z,11.70
2019-04-23T03:23:27.569Z,11.60
2019-04-23T03:28:27.005Z,11.50
2019-04-23T03:48:42.045Z,11.00
2019-04-23T03:51:03.355Z,10.90
2019-04-23T03:54:05.581Z,10.70
2019-04-23T03:58:58.266Z,10.50
2019-04-23T04:01:21.624Z,10.40
2019-04-23T04:04:12.494Z,10.30
2019-04-23T04:09:03.097Z,10.10
2019-04-23T04:11:21.968Z,10.00
2019-04-23T04:14:04.830Z,10.00
2019-04-23T04:16:28.641Z,9.90
2019-04-23T04:21:36.393Z,10.00
2019-04-23T04:24:17.298Z,10.00
2019-04-23T04:26:46.717Z,9.90
2019-04-23T04:31:55.199Z,9.90
2019-04-23T04:34:22.317Z,9.90
2019-04-23T04:39:06.309Z,10.30
2019-04-23T04:41:54.870Z,10.50
2019-04-23T04:49:20.056Z,11.10
2019-04-23T04:52:09.089Z,11.20
2019-04-23T04:54:21.273Z,11.20
2019-04-23T04:59:25.680Z,11.30
2019-04-23T05:02:11.826Z,11.40
2019-04-23T05:04:37.910Z,11.50
2019-04-23T05:09:55.575Z,11.50
2019-04-23T05:12:23.746Z,11.60
2019-04-23T05:17:24.380Z,11.70
2019-04-23T05:19:50.972Z,11.80
2019-04-23T05:22:22.135Z,11.90
2019-04-23T05:25:05.488Z,11.90
2019-04-23T05:27:27.577Z,12.00
2019-04-23T05:30:02.919Z,12.00
2019-04-23T05:32:27.034Z,12.10
2019-04-23T05:35:03.491Z,12.20
2019-04-23T05:37:42.325Z,12.30
2019-04-23T05:40:21.408Z,12.40
2019-04-23T05:42:41.509Z,12.50
2019-04-23T05:45:11.152Z,12.70
2019-04-23T05:47:43.078Z,12.80
2019-04-23T05:50:18.832Z,13.00
2019-04-23T05:52:54.141Z,13.10
2019-04-23T05:55:16.906Z,13.20
2019-04-23T05:57:42.711Z,13.30
2019-04-23T06:00:26.153Z,13.20
2019-04-23T06:02:56.635Z,13.20
2019-04-23T06:05:30.557Z,13.30
2019-04-23T06:07:57.694Z,13.30
2019-04-23T06:10:33.995Z,13.40
2019-04-23T06:12:58.720Z,13.60
2019-04-23T06:15:33.626Z,13.70
2019-04-23T06:18:08.035Z,13.80
2019-04-23T06:20:45.085Z,13.80
2019-04-23T06:23:18.085Z,13.90
2019-04-23T06:25:57.307Z,14.00
2019-04-23T06:28:19.282Z,14.00
2019-04-23T06:30:52.221Z,14.10
2019-04-23T06:33:21.048Z,14.30
2019-04-23T06:35:50.465Z,14.30
2019-04-23T06:40:54.006Z,14.80
2019-04-23T06:45:57.515Z,14.60
2019-04-23T06:51:09.441Z,15.10
2019-04-23T06:53:28.907Z,15.50
2019-04-23T06:56:13.603Z,16.00
2019-04-23T06:58:37.456Z,16.30
2019-04-23T07:03:48.644Z,16.70
2019-04-23T07:06:30.100Z,16.70
2019-04-23T07:09:05.708Z,16.60
2019-04-23T07:16:22.911Z,16.60
2019-04-23T07:18:57.549Z,16.80
2019-04-23T07:21:30.386Z,17.10
2019-04-23T07:24:05.336Z,17.20
2019-04-23T07:26:33.333Z,17.20
2019-04-23T07:29:15.914Z,17.40
2019-04-23T07:31:37.888Z,17.70
2019-04-23T07:36:41.051Z,18.40
2019-04-23T07:39:35.297Z,18.60
2019-04-23T07:42:34.447Z,19.10
2019-04-23T07:45:22.273Z,19.30
2019-04-23T07:56:07.413Z,19.90
2019-04-23T07:58:27.261Z,19.70
2019-04-23T08:01:08.213Z,20.10
2019-04-23T08:03:31.236Z,20.10
2019-04-23T08:06:12.059Z,19.80
2019-04-23T08:08:30.193Z,19.90
2019-04-23T08:16:25.997Z,19.80
2019-04-23T08:18:49.261Z,19.90
2019-04-23T08:21:14.463Z,19.90
2019-04-23T08:24:00.281Z,19.90
2019-04-23T08:26:53.553Z,19.90
2019-04-23T08:29:24.982Z,19.80
2019-04-23T08:37:08.907Z,19.50
2019-04-23T08:48:07.541Z,20.10
2019-04-23T08:53:23.278Z,20.30
2019-04-23T08:55:46.443Z,20.60
2019-04-23T08:58:13.532Z,20.80
2019-04-23T09:03:25.366Z,20.70
2019-04-23T09:05:52.497Z,20.80
2019-04-23T09:08:27.503Z,20.90
2019-04-23T09:21:02.118Z,20.90
2019-04-23T09:26:26.086Z,21.30
2019-04-23T09:28:47.435Z,21.60
2019-04-23T09:32:05.977Z,21.70
2019-04-23T09:34:23.720Z,21.90
2019-04-23T09:36:59.896Z,22.20
2019-04-23T09:39:49.794Z,22.10
2019-04-23T09:45:22.750Z,22.50
2019-04-23T09:47:58.577Z,22.00
2019-04-23T09:53:06.383Z,22.00
2019-04-23T09:58:03.176Z,22.50
2019-04-23T10:00:36.170Z,22.30
2019-04-23T10:02:53.445Z,22.20
2019-04-23T10:05:21.839Z,22.10
2019-04-23T10:07:51.942Z,22.10
2019-04-23T10:10:14.434Z,22.10
2019-04-23T10:12:45.758Z,22.20
2019-04-23T10:15:24.293Z,22.20
2019-04-23T10:17:49.963Z,22.40
2019-04-23T10:20:20.559Z,22.70
2019-04-23T10:22:52.475Z,22.70
2019-04-23T10:25:22.770Z,23.10
2019-04-23T10:27:58.843Z,23.40
2019-04-23T10:30:24.925Z,23.30
2019-04-23T10:32:55.910Z,23.70
2019-04-23T10:35:39.495Z,23.90
2019-04-23T10:38:04.168Z,24.30
2019-04-23T10:40:34.097Z,24.40
2019-04-23T10:43:02.097Z,24.10
2019-04-23T10:45:58.184Z,24.10
2019-04-23T10:49:11.451Z,24.00
2019-04-23T10:51:37.747Z,24.10
2019-04-23T10:54:17.839Z,24.20
2019-04-23T10:56:44.985Z,24.50
2019-04-23T10:59:31.038Z,24.60
2019-04-23T11:02:23.953Z,24.40
2019-04-23T11:07:22.975Z,24.40
2019-04-23T11:09:52.838Z,24.80
2019-04-23T11:12:33.004Z,24.40
2019-04-23T11:14:57.913Z,24.30
2019-04-23T11:17:35.632Z,24.30
2019-04-23T11:20:06.777Z,24.20
2019-04-23T11:22:38.977Z,24.10
2019-04-23T11:25:15.411Z,24.30
2019-04-23T11:27:35.070Z,24.30
2019-04-23T11:30:21.739Z,24.40
2019-04-23T11:40:17.268Z,24.10
2019-04-23T11:42:50.001Z,23.90
2019-04-23T11:45:32.299Z,24.00
2019-04-23T11:50:28.974Z,24.00
2019-04-23T11:58:08.221Z,24.30
2019-04-23T12:00:44.950Z,24.30
2019-04-23T12:03:17.738Z,24.40
2019-04-23T12:06:18.359Z,24.20
2019-04-23T12:08:56.322Z,24.00
2019-04-23T12:11:52.703Z,24.00
2019-04-23T12:27:31.441Z,24.00
2019-04-23T12:30:13.142Z,24.30
2019-04-23T12:32:45.057Z,24.40
2019-04-23T12:35:16.193Z,24.20
2019-04-23T12:37:44.900Z,24.60
2019-04-23T12:40:30.823Z,24.80
2019-04-23T12:50:44.749Z,24.80
2019-04-23T12:58:03.474Z,24.60
2019-04-23T13:03:08.504Z,25.00
2019-04-23T13:08:26.881Z,24.60
2019-04-23T13:11:01.265Z,24.70
2019-04-23T13:15:47.872Z,24.70
2019-04-23T13:18:23.673Z,24.50
2019-04-23T13:20:41.934Z,24.60
2019-04-23T13:23:22.192Z,24.80
2019-04-23T13:26:16.073Z,24.80
2019-04-23T13:28:45.856Z,24.80
2019-04-23T13:31:16.294Z,24.50
2019-04-23T13:33:58.446Z,24.20
2019-04-23T13:38:56.970Z,24.20
2019-04-23T13:41:23.361Z,24.30
2019-04-23T13:43:57.270Z,24.50
2019-04-23T13:46:36.791Z,24.60
2019-04-23T13:49:03.956Z,24.40
2019-04-23T13:54:18.431Z,24.40
2019-04-23T13:57:14.371Z,24.30
2019-04-23T13:59:26.450Z,24.30
2019-04-23T14:02:06.895Z,24.10
2019-04-23T14:04:38.632Z,24.10
2019-04-23T14:07:10.709Z,24.10
2019-04-23T14:09:45.974Z,24.10
2019-04-23T14:12:10.611Z,24.20
2019-04-23T14:17:29.125Z,24.30
2019-04-23T14:19:55.963Z,24.10
2019-04-23T14:22:48.326Z,24.10
2019-04-23T14:25:04.880Z,24.40
2019-04-23T14:28:01.286Z,24.60
2019-04-23T14:30:05.295Z,24.30
2019-04-23T14:32:30.890Z,24.30
2019-04-23T14:35:10.800Z,24.30
2019-04-23T14:37:37.792Z,24.30
2019-04-23T14:40:29.683Z,24.40
2019-04-23T14:42:56.130Z,24.50
2019-04-23T14:53:16.019Z,23.90
2019-04-23T14:58:21.900Z,23.80
2019-04-23T15:00:53.329Z,23.70
2019-04-23T15:03:27.257Z,23.50
2019-04-23T15:06:06.612Z,23.60
2019-04-23T15:08:32.734Z,23.70
2019-04-23T15:13:28.031Z,23.60
2019-04-23T15:16:08.609Z,23.50
2019-04-23T15:19:02.647Z,23.50
2019-04-23T15:24:03.990Z,23.40
2019-04-23T15:28:38.552Z,23.10
2019-04-23T15:31:33.229Z,22.90
2019-04-23T15:34:09.277Z,22.90
2019-04-23T15:36:51.717Z,22.70
2019-04-23T15:39:24.459Z,22.50
2019-04-23T15:44:13.211Z,22.70
2019-04-23T15:46:53.261Z,22.70
2019-04-23T15:54:19.664Z,22.70
2019-04-23T15:56:50.048Z,22.70
2019-04-23T15:59:27.585Z,22.60
2019-04-23T16:01:43.192Z,22.50
2019-04-23T16:03:57.210Z,22.50
2019-04-23T16:06:30.940Z,22.60
2019-04-23T16:09:15.997Z,22.70
2019-04-23T16:12:09.779Z,22.60
2019-04-23T16:14:32.519Z,22.70
2019-04-23T16:17:12.034Z,22.60
2019-04-23T16:19:57.948Z,22.80
2019-04-23T16:22:28.479Z,22.80
2019-04-23T16:25:03.367Z,22.70
2019-04-23T16:27:19.956Z,22.80
2019-04-23T16:30:10.444Z,22.80
2019-04-23T16:35:51.743Z,22.70
2019-04-23T16:41:07.887Z,22.70
2019-04-23T16:48:50.668Z,22.80
2019-04-23T16:51:11.821Z,22.80
2019-04-23T16:53:30.087Z,22.60
2019-04-23T16:56:13.523Z,22.50
2019-04-23T17:01:07.316Z,22.20
2019-04-23T17:03:40.143Z,22.10
2019-04-23T17:06:09.907Z,22.00
2019-04-23T17:11:15.729Z,21.80
2019-04-23T17:13:48.551Z,21.70
2019-04-23T17:21:18.406Z,21.50
2019-04-23T17:24:02.987Z,21.40
2019-04-23T17:26:26.056Z,21.30
2019-04-23T17:29:00.117Z,21.20
2019-04-23T17:34:11.157Z,21.00
2019-04-23T17:37:12.136Z,20.90
2019-04-23T17:39:41.459Z,20.80
2019-04-23T17:42:29.289Z,20.70
2019-04-23T17:47:45.977Z,20.50
2019-04-23T17:50:13.662Z,20.40
2019-04-23T17:52:47.379Z,20.20
2019-04-23T17:55:15.460Z,20.10
2019-04-23T18:00:33.878Z,19.80
2019-04-23T18:05:16.591Z,19.60
2019-04-23T18:13:04.406Z,19.30
2019-04-23T18:15:28.339Z,19.30
2019-04-23T18:18:13.625Z,19.10
2019-04-23T18:21:04.766Z,19.10
2019-04-23T18:23:24.190Z,19.00
2019-04-23T18:26:05.414Z,19.00
2019-04-23T18:28:39.801Z,18.80
2019-04-23T18:34:12.603Z,18.60
2019-04-23T18:36:25.539Z,18.60
2019-04-23T18:41:33.533Z,18.60
2019-04-23T18:44:13.472Z,18.60
2019-04-23T18:46:43.802Z,18.60
2019-04-23T18:49:14.851Z,18.50
2019-04-23T18:51:41.735Z,18.40
2019-04-23T18:54:14.827Z,18.30
2019-04-23T18:57:02.705Z,18.20
2019-04-23T19:02:35.480Z,18.30
2019-04-23T19:05:11.683Z,18.30
2019-04-23T19:08:21.332Z,18.30
2019-04-23T19:11:13.397Z,18.20
2019-04-23T19:13:44.724Z,18.20
2019-04-23T19:16:21.283Z,18.20
2019-04-23T19:18:58.095Z,18.10
2019-04-23T19:21:31.889Z,18.10
2019-04-23T19:23:51.204Z,18.00
2019-04-23T19:26:45.629Z,18.00
2019-04-23T19:28:55.454Z,18.00
2019-04-23T19:31:52.794Z,17.90
2019-04-23T19:34:22.490Z,17.90
2019-04-23T19:36:56.397Z,17.80
2019-04-23T19:42:02.153Z,17.80
2019-04-23T19:44:29.282Z,17.70
2019-04-23T19:47:09.405Z,17.70
2019-04-23T19:51:57.690Z,17.70
2019-04-23T19:54:42.703Z,17.60
2019-04-23T19:57:02.134Z,17.60
2019-04-23T19:59:45.062Z,17.60
2019-04-23T20:02:10.248Z,17.60
2019-04-23T20:04:46.126Z,17.60
2019-04-23T20:09:50.692Z,17.60
2019-04-23T20:14:48.773Z,17.50
2019-04-23T20:20:04.487Z,17.30
2019-04-23T20:27:26.406Z,17.10
2019-04-23T20:30:37.996Z,17.10
2019-04-23T20:33:38.936Z,17.00
2019-04-23T20:35:17.986Z,17.00
2019-04-23T20:38:17.257Z,17.10
2019-04-23T20:40:30.579Z,17.00
2019-04-23T20:42:58.330Z,17.00
2019-04-23T20:45:33.327Z,17.00
2019-04-23T20:50:34.026Z,16.90
2019-04-23T20:52:59.522Z,16.80
2019-04-23T20:55:54.576Z,16.80
2019-04-23T20:58:13.751Z,16.80
2019-04-23T21:01:18.755Z,16.70
2019-04-23T21:03:52.194Z,16.80
2019-04-23T21:11:18.580Z,16.90
2019-04-23T21:16:21.148Z,16.70
2019-04-23T21:19:15.106Z,16.80
2019-04-23T21:21:25.913Z,16.80
2019-04-23T21:23:56.655Z,16.80
2019-04-23T21:26:37.236Z,16.70
2019-04-23T21:29:03.893Z,16.60
2019-04-23T21:31:48.453Z,16.50
2019-04-23T21:36:50.990Z,16.60
2019-04-23T21:40:19.155Z,16.70
2019-04-23T21:44:59.016Z,16.60
2019-04-23T21:50:14.138Z,16.40
2019-04-23T21:52:39.705Z,16.40
2019-04-23T21:55:09.784Z,16.30
2019-04-23T21:57:54.486Z,16.30
2019-04-23T22:00:07.605Z,16.30
2019-04-23T22:05:26.855Z,16.10
2019-04-23T22:08:03.055Z,16.00
2019-04-23T22:10:47.240Z,15.90
2019-04-23T22:15:43.170Z,15.70
2019-04-23T22:18:18.264Z,15.70
2019-04-23T22:20:34.602Z,15.60
2019-04-23T22:25:46.332Z,15.50
2019-04-23T22:28:10.326Z,15.40
2019-04-23T22:30:50.569Z,15.50
2019-04-23T22:33:09.842Z,15.50
2019-04-23T22:35:48.314Z,15.40
2019-04-23T22:38:13.241Z,15.40
2019-04-23T22:40:49.478Z,15.30
2019-04-23T22:48:23.636Z,15.10
2019-04-23T22:51:04.885Z,15.00
2019-04-23T22:53:31.432Z,14.90
2019-04-23T22:56:01.791Z,14.90
2019-04-23T22:58:37.439Z,14.90
2019-04-23T23:01:26.353Z,14.80
2019-04-23T23:04:04.501Z,14.90
2019-04-23T23:09:20.954Z,14.40
2019-04-23T23:11:42.911Z,14.10
2019-04-23T23:14:16.749Z,13.70
2019-04-23T23:16:45.194Z,13.50
2019-04-23T23:19:23.614Z,13.50
2019-04-23T23:22:00.319Z,13.50
2019-04-23T23:24:21.213Z,13.50
2019-04-23T23:29:20.293Z,13.80
2019-04-23T23:32:00.753Z,13.80
2019-04-23T23:34:41.945Z,13.80
2019-04-23T23:37:03.765Z,13.80
2019-04-23T23:39:35.240Z,13.60
2019-04-23T23:42:04.117Z,13.50
2019-04-23T23:44:43.888Z,13.50
2019-04-23T23:47:12.691Z,13.50
2019-04-23T23:49:43.542Z,13.50
2019-04-23T23:52:16.151Z,13.50
2019-04-23T23:54:50.525Z,13.70
